Blythe

Current Flights

Departures
Number Departure To Airline
Arrivals
Number Arrival From Airline
Info
Name: Blythe
Identifier:  BLH/KBLH
Local Time:  16. Jun 00:02
City
Flights per Day
2 flights
Distance: 260km (161mi)
Punctuality
92% (0 flights per day delayed)
Delay Average: 11 minutes
Current Weather
 33 C (Humidity: 18%)
  8kt (14km/h / 9mph) from 180°
  16km (10 mi.)
 
 METAR KBLH 160552Z AUTO 18008KT 10SM CLR 33/06 A2971 RMK AO2 SLP054 T03280056 10406 20328 51013

Current Delays

Departures
N/A
Arrivals
N/A

Destinations

Top Destinations
Airport Flights
per week
Seats
per week
  Ontario (ONT) 5 - 0 0
  Palm Springs (PSP) 4 - 0 0
  Phoenix (DVT) 0 - 0 0
  Fresno (FAT) 0 - 0 0
  Imperial (IPL) 0 - 0 0
  Hemet (HMT) 0 - 0 0
  Las Cruces (LRU) 0 - 0 0
  San Diego (MYF) 0 - 0 0
  Thermal (TRM) 0 - 0 0
  Denver (BJC) 0 - 0 0

Airlines & Planes

Top Airlines
Airline Flights
per Day
Seats
per Day
  Ameriflight 1 -
  Flybe Nordic 0 -
  Nolinor Aviation 0 -
Jet Charter Inc ( Franklin Lakes Nj ) 0 -
  National Airlines 0 -
Nordwind Airlines 0 -
  Novair 0 -
Top Plane Types
Model Flights Seats
Beech C-99 Airliner 1.6/day - 0
Cessna C172 0.3/day - 0
Pilatus PC-12 0.1/day - 0
Beech G36 Bonanza 0.1/day - 0
Beech B200 Super King Air 0.1/day - 0
Mooney M20K 0.0/day - 0